Calgary International Airport

CYYC · Alberta, Canadá

METAR pasados CYYC · Aeropuerto Internacional de Calgary

A continuación puedes ver los METAR de los últimos días. Selecciona un año para ver los METAR más antiguos, desde el año 2007 en adelante.

7 de diciembre de 2022

Hora Código Tiempo Temp. Visibilidad Cielo nuboso Viento METAR/SPECI
10:00
V
1 °C 40 mi - 270° 270° 16 - 25 kt METAR CYYC 071700Z 27016G25KT 40SM FEW100 FEW250 01/M10 A2972 RMK AC1CI1 AC TR CI TR SLP139
09:00
V
0 °C 30 mi - 280° 280° 17 - 25 kt METAR CYYC 071600Z 28017G25KT 30SM FEW120 00/M10 A2970 RMK AC2 CONTRAILS SLP133
08:00
V
0 °C 30 mi 13.000 ft 270° 270° 13 - 22 kt METAR CYYC 071500Z 27013G22KT 30SM BKN130 M00/M11 A2968 RMK AC7 SLP127
07:00
V
-1 °C 15 mi - 270° 270° 15 - 24 kt METAR CYYC 071400Z 27015G24KT 15SM FEW076 M01/M11 A2966 RMK AC2 SLP120
06:00
V
-8 °C 15 mi - 180° 180° 8 kt METAR CYYC 071300Z 18008KT 15SM FEW076 M08/M14 A2965 RMK AC1 SLP129
05:00
V
-13 °C 15 mi - 170° 170° 5 kt METAR CYYC 071200Z 17005KT 15SM FEW076 M13/M17 A2964 RMK AC2 SLP133
04:00
V
-17 °C 15 mi - 200° 200° 7 kt METAR CYYC 071100Z 20007KT 15SM FEW076 M17/M20 A2964 RMK AC2 SLP136
03:00
V
-21 °C 15 mi - 190° 190° 8 kt METAR CYYC 071000Z 19008KT 15SM FEW076 M21/M24 A2964 RMK AC2 SLP144
02:00
V
-22 °C 15 mi 7.600 ft 190° 190° 7 kt METAR CYYC 070900Z 19007KT 15SM BKN076 M22/M25 A2965 RMK AC5 SLP149
01:00
V
-22 °C 15 mi 7.800 ft 180° 180° 9 kt METAR CYYC 070800Z 18009KT 15SM BKN078 M22/M25 A2967 RMK AC6 SLP157
00:00
V
-21 °C 15 mi - 170° 170° 12 kt METAR CYYC 070700Z 17012KT 15SM SCT080 M21/M25 A2970 RMK AC6 SLP164

6 de diciembre de 2022

Hora Código Tiempo Temp. Visibilidad Cielo nuboso Viento METAR/SPECI
23:00
V
-21 °C 15 mi 8.000 ft 180° 180° 11 kt METAR CYYC 070600Z 18011KT 15SM BKN080 M21/M24 A2970 RMK AC6 SLP166
22:00
V
-21 °C 15 mi 8.000 ft 180° 180° 14 kt METAR CYYC 070500Z 18014KT 15SM BKN080 M21/M25 A2972 RMK AC7 SLP174
21:00
V
-21 °C 15 mi 8.300 ft 180° 180° 13 kt METAR CYYC 070400Z 18013KT 15SM BKN083 M21/M25 A2974 RMK AC7 SLP181
20:00
V
-21 °C 12 mi 9.100 ft 190° 190° 12 kt METAR CYYC 070300Z 19012KT 12SM -SN FEW068 BKN091 M21/M25 A2978 RMK AC2AC5 SLP195
19:00
M
-21 °C 3 mi 4.700 ft 180° 180° 13 kt METAR CYYC 070200Z 18013KT 3SM -SN VV047 M21/M25 A2979 RMK SN8 SLP198
18:00
V
-21 °C 5 mi 6.500 ft 180° 180° 14 kt METAR CYYC 070100Z 18014KT 5SM -SN OVC065 M21/M24 A2981 RMK SC8 SLP205
17:00
I
-21 °C 2¼ mi 9.500 ft 180° 180° 12 kt METAR CYYC 070000Z 18012KT 2 1/4SM -SN SCT050 OVC095 M21/M24 A2982 RMK SC3AC5 SLP210
16:33
I
-21 °C 1½ mi 2.800 ft 170° 170° 12 kt METAR CYYC 062333Z 17012KT 1 1/2SM -SN VV028 M21/M25 A2983 RMK SN8 SLP211
16:00
M
-21 °C 5 mi 2.600 ft 170° 170° 11 kt METAR CYYC 062300Z 17011KT 5SM -SN OVC026 M21/M25 A2983 RMK SC8 SLP211
15:51
I
-21 °C 3 mi 3.000 ft 180° 180° 10 kt METAR CYYC 062251Z 18010KT 3SM -SN BKN030 OVC060 M21/M25 A2983 RMK SC5SC3 SLP211
15:00
I
-21 °C 1¼ mi 4.900 ft 180° 180° 12 kt METAR CYYC 062200Z 18012KT 1 1/4SM -SN OVC049 M21/M25 A2983 RMK SN6SC2 SLP212
14:51
I
-21 °C 1¼ mi 4.000 ft 180° 180° 12 kt METAR CYYC 062151Z 18012KT 1 1/4SM -SN OVC040 M21/M25 A2983 RMK SN6SC2 SLP210
14:42
I
-21 °C 1 mi 1.400 ft 180° 180° 11 kt METAR CYYC 062142Z 18011KT 1SM R17R/5500VP6000FT/D R29/P6000FT/D R17L/P6000FT/N -SN VV014 M21/M25 A2983 RMK SN8 SLP212
14:00
I
-21 °C 1½ mi 4.000 ft 170° 170° 12 kt METAR CYYC 062100Z 17012KT 1 1/2SM -SN OVC040 M21/M25 A2983 RMK SN6SC2 SLP213
13:24
I
-22 °C 1½ mi 5.600 ft 160° 160° 10 kt METAR CYYC 062024Z 16010KT 1 1/2SM -SN OVC056 M22/M25 A2984 RMK SN6SC2 SLP214
13:00
I
-22 °C 1¼ mi 2.000 ft 150° 150° 11 kt METAR CYYC 062000Z 15011KT 1 1/4SM R17R/4500VP6000FT/U -SN VV020 M22/M25 A2984 RMK SN8 SLP215
12:00
I
-22 °C 1¼ mi 2.100 ft 160° 160° 11 kt METAR CYYC 061900Z 16011KT 1 1/4SM R17R/5500VP6000FT/U -SN VV021 M22/M26 A2986 RMK SN8 SLP222
11:00
I
-22 °C 1 mi 1.900 ft 150° 150° 11 kt METAR CYYC 061800Z 15011KT 1SM R17R/4000VP6000FT/N R29/P6000FT/U R17L/P6000FT/N -SN VV019 M22/M26 A2988 RMK SN8 /S01/ SLP226
10:00
I
-23 °C 1 mi 2.000 ft 160° 160° 11 kt METAR CYYC 061700Z 16011KT 1SM R17R/5500VP6000FT/D R29/P6000FT/N R17L/P6000FT/U -SN VV020 M23/M26 A2988 RMK SN8 SLP222
09:00
I
-23 °C 1½ mi 4.000 ft 160° 160° 9 kt METAR CYYC 061600Z 16009KT 1 1/2SM -SN VV040 M23/M26 A2988 RMK SN8 SLP223
08:00
I
-23 °C 2 mi 4.200 ft 140° 140° 6 kt METAR CYYC 061500Z 14006KT 2SM -SN VV042 M23/M26 A2988 RMK SN8 SLP222
07:00
I
-23 °C 2 mi 3.700 ft 120° 120° 4 kt METAR CYYC 061400Z 12004KT 2SM -SN VV037 M23/M26 A2989 RMK SN8 SLP223
06:00
M
-23 °C 4 mi 6.100 ft 070° 070° 3 kt METAR CYYC 061300Z 07003KT 4SM -SN OVC061 M23/M26 A2988 RMK SN4SC4 SLP218
05:00
I
-23 °C 1¾ mi 3.200 ft 110° 110° 3 kt METAR CYYC 061200Z 11003KT 060V130 1 3/4SM -SN VV032 M23/M26 A2988 RMK SN8 VIS VRB 11/4-21/4 /S01/ SLP217
04:00
I
-23 °C 2¼ mi 3.500 ft 050° 050° 4 kt METAR CYYC 061100Z 05004KT 2 1/4SM -SN FEW004 VV035 M23/M26 A2987 RMK CF1SN8 CF TR SLP210
03:38
I
-23 °C 2 mi 2.900 ft 020° 020° 6 kt METAR CYYC 061038Z 02006KT 2SM -SN VV029 M23/M26 A2988 RMK SN8 SLP209
03:23
I
-23 °C 1 mi 3.400 ft 030° 030° 9 kt METAR CYYC 061023Z 03009KT 1SM R35L/P6000FT/U R29/P6000FT/U R35R/P6000FT/U -SN VV034 M23/M26 A2988 RMK SN8 SLP209
03:12
L
-23 °C ¾ mi 1.600 ft 040° 040° 9 kt METAR CYYC 061012Z 04009KT 3/4SM R35L/P6000FT/N R29/P6000FT/D R35R/P6000FT/N -SN VV016 M23/M26 A2988 RMK SN8 SLP209
03:00
I
-23 °C 1½ mi 1.600 ft 030° 030° 8 kt METAR CYYC 061000Z 03008KT 1 1/2SM -SN VV016 M23/M26 A2988 RMK SN8 SLP210
02:00
I
-22 °C 2 mi 3.200 ft 070° 070° 7 kt METAR CYYC 060900Z 07007KT 2SM -SN VV032 M22/M25 A2986 RMK SN8 SLP203
01:00
I
-22 °C 2 mi 2.600 ft 050° 050° 10 kt METAR CYYC 060800Z 05010KT 2SM -SN VV026 M22/M25 A2987 RMK SN8 SLP206
00:00
I
-21 °C 2 mi 3.200 ft 050° 050° 11 kt METAR CYYC 060700Z 05011KT 2SM -SN VV032 M21/M24 A2987 RMK SN8 SLP206

5 de diciembre de 2022

Hora Código Tiempo Temp. Visibilidad Cielo nuboso Viento METAR/SPECI
23:00
I
-19 °C 2 mi 1.700 ft 060° 060° 14 kt METAR CYYC 060600Z 06014KT 2SM -SN FEW012 VV017 M19/M23 A2985 RMK SC2SN6 /S02/ SLP197
22:00
I
-17 °C 2 mi 2.400 ft 050° 050° 7 kt METAR CYYC 060500Z 05007KT 2SM -SN VV024 M17/M20 A2984 RMK SN8 SLP191
21:41
I
-17 °C 1 mi 1.500 ft 050° 050° 9 kt METAR CYYC 060441Z 05009KT 1SM R35L/P6000FT/D R29/P6000FT/D R35R/P6000FT/N -SN VV015 M17/M20 A2984 RMK SN8 SLP191
21:00
I
-16 °C 2 mi 1.700 ft 020° 020° 11 kt METAR CYYC 060400Z 02011KT 2SM -SN FEW014 VV017 M16/M20 A2984 RMK SC2SN6 SLP191
20:00
I
-16 °C 2 mi 2.500 ft 020° 020° 10 - 15 kt METAR CYYC 060300Z 02010G15KT 2SM -SN SCT015 VV025 M16/M19 A2982 RMK SC3SN5 SLP184
19:00
I
-15 °C 2½ mi 2.700 ft 020° 020° 16 - 22 kt METAR CYYC 060200Z 02016G22KT 2 1/2SM -SN VV027 M15/M18 A2980 RMK SN8 SLP173
18:46
I
-15 °C 2½ mi 1.000 ft 020° 020° 15 - 21 kt METAR CYYC 060146Z 02015G21KT 2 1/2SM -SN BKN010 OVC040 M15/M18 A2979 RMK SN1SC5SC3 SLP172
18:00
V
-14 °C 10 mi 10.000 ft 010° 010° 16 kt METAR CYYC 060100Z 01016KT 10SM OVC100 M14/M18 A2978 RMK AC8 SLP166
17:00
V
-13 °C 5 mi 11.000 ft 010° 010° 21 - 26 kt METAR CYYC 060000Z 01021G26KT 5SM DRSN SCT060 BKN110 BKN300 M13/M17 A2976 RMK SC3AC3CI1 SLP159
16:00
V
-9 °C 5 mi 8.000 ft 360° 360° 23 - 29 kt METAR CYYC 052300Z 36023G29KT 5SM R35L/4500VP6000FT/U -SN BLSN SCT060 BKN080 M09/M13 A2971 RMK SC4AC3 SLP132
15:51
I
-9 °C 3 mi 5.600 ft 360° 360° 23 - 29 kt METAR CYYC 052251Z 36023G29KT 3SM R35L/5000VP6000FT/N -SN BLSN BKN056 OVC064 M09/M13 A2970 RMK SC6SC2 SLP129
15:23
I
-7 °C 1¼ mi 2.300 ft 340° 340° 13 kt METAR CYYC 052223Z 34013KT 1 1/4SM -SN OVC023 M07/M11 A2969 RMK SN1SC7 WSHFT 2210 SLP122
15:00
M
-8 °C 3 mi 3.600 ft 270° 270° 7 kt METAR CYYC 052200Z 27007KT 3SM -SN OVC036 M08/M11 A2968 RMK SC8 SLP118
14:00
M
-8 °C 3 mi 3.200 ft 260° 260° 7 kt METAR CYYC 052100Z 26007KT 210V280 3SM -SN OVC032 M08/M12 A2967 RMK SC8 SLP117
13:00
I
-9 °C 3 mi 4.000 ft 230° 230° 13 kt METAR CYYC 052000Z 23013KT 3SM -SN BKN040 OVC050 M09/M12 A2967 RMK SC5SC3 SLP117
12:24
I
-10 °C 3 mi 6.000 ft 200° 200° 13 kt METAR CYYC 051924Z 20013KT 3SM -SN OVC060 M10/M12 A2969 RMK SC8 SLP124
12:00
I
-10 °C 1½ mi 5.200 ft 190° 190° 9 kt METAR CYYC 051900Z 19009KT 1 1/2SM -SN OVC052 M10/M12 A2971 RMK SN3SC5 SLP130
11:52
I
-10 °C 1¼ mi 4.600 ft 190° 190° 10 kt METAR CYYC 051852Z 19010KT 1 1/4SM -SN OVC046 M10/M12 A2971 RMK SN3SC5 SLP132
11:21
L
-10 °C ¾ mi 1.000 ft 130° 130° 4 kt METAR CYYC 051821Z 13004KT 3/4SM R17R/4000V5000FT/N R29/5500VP6000FT/D R17L/4500V6000FT/D -SN VV010 M10/M12 A2974 RMK SN8 SLP141
11:00
I
-10 °C 2½ mi 3.500 ft 150° 150° 6 kt METAR CYYC 051800Z 15006KT 2 1/2SM R17R/5000VP6000FT/D R29/5500VP6000FT/U -SN OVC035 M10/M12 A2975 RMK SN3SC5 /S02/ SLP143
10:00
M
-11 °C 3 mi 3.800 ft 170° 170° 6 kt METAR CYYC 051700Z 17006KT 3SM -SN SCT010 OVC038 M11/M13 A2975 RMK SN2SC1SC5 /S01/ SLP143
09:00
I
-11 °C 3 mi 4.100 ft 170° 170° 7 kt METAR CYYC 051600Z 17007KT 3SM -SN OVC041 M11/M12 A2976 RMK SN2SC6 SLP148
08:00
M
-10 °C 4 mi 4.800 ft 160° 160° 7 kt METAR CYYC 051500Z 16007KT 4SM -SN OVC048 M10/M12 A2978 RMK SN1SC7 SLP155
07:00
M
-10 °C 4 mi 5.400 ft 170° 170° 6 kt METAR CYYC 051400Z 17006KT 4SM -SN BR BKN054 OVC063 M10/M12 A2982 RMK SC6SC2 SLP166
06:00
V
-10 °C 5 mi 6.200 ft 120° 120° 5 kt METAR CYYC 051300Z 12005KT 5SM -SN BR OVC062 M10/M12 A2984 RMK SC8 SLP174
05:00
V
-10 °C 5 mi 5.500 ft 090° 090° 8 kt METAR CYYC 051200Z 09008KT 5SM -SN BR OVC055 M10/M13 A2987 RMK SC8 /S02/ SLP182
04:00
V
-9 °C 5 mi 6.000 ft 360° 360° 5 kt METAR CYYC 051100Z 36005KT 5SM -SN BR OVC060 M09/M12 A2989 RMK SC8 PCPN VRY LGT SLP186
03:00
V
-8 °C 5 mi 6.400 ft 010° 010° 6 kt METAR CYYC 051000Z 01006KT 5SM -SN BR OVC064 M08/M11 A2992 RMK SC8 PCPN VRY LGT SLP193

Nosotros y terceros seguimos tu comportamiento en Internet en nuestro sitio web con cookies. Si continúas, asumimos que estás de acuerdo con nuestra Política de cookies.